createdAt,value
2019-06-20T00:01:28.489Z,21.70
2019-06-20T00:03:58.700Z,21.70
2019-06-20T00:06:29.001Z,21.60
2019-06-20T00:08:59.416Z,21.60
2019-06-20T00:11:29.684Z,21.60
2019-06-20T00:14:00.021Z,21.60
2019-06-20T00:16:30.308Z,21.60
2019-06-20T00:19:00.632Z,21.60
2019-06-20T00:21:31.907Z,21.60
2019-06-20T00:24:02.188Z,21.60
2019-06-20T00:26:32.740Z,21.60
2019-06-20T00:29:03.192Z,21.50
2019-06-20T00:31:33.626Z,21.50
2019-06-20T00:34:03.878Z,21.50
2019-06-20T00:36:34.246Z,21.50
2019-06-20T00:39:07.929Z,21.50
2019-06-20T00:41:38.360Z,21.50
2019-06-20T00:44:08.548Z,21.40
2019-06-20T00:46:40.159Z,21.40
2019-06-20T00:49:10.383Z,21.40
2019-06-20T00:51:47.557Z,21.40
2019-06-20T00:54:17.900Z,21.30
2019-06-20T00:56:48.098Z,21.40
2019-06-20T00:59:21.846Z,21.30
2019-06-20T01:01:52.194Z,21.30
2019-06-20T01:04:25.168Z,21.20
2019-06-20T01:06:55.461Z,21.10
2019-06-20T01:09:25.779Z,21.10
2019-06-20T01:11:57.359Z,21.10
2019-06-20T01:14:28.603Z,21.00
2019-06-20T01:16:58.865Z,21.00
2019-06-20T01:19:29.047Z,21.10
2019-06-20T01:21:59.495Z,21.00
2019-06-20T01:24:30.375Z,20.90
2019-06-20T01:27:00.695Z,20.90
2019-06-20T01:29:30.878Z,20.90
2019-06-20T01:32:01.180Z,20.90
2019-06-20T01:34:32.472Z,20.90
2019-06-20T01:37:02.778Z,20.90
2019-06-20T01:39:33.333Z,20.90
2019-06-20T01:42:03.632Z,20.80
2019-06-20T01:44:33.926Z,20.80
2019-06-20T01:47:18.614Z,20.80
2019-06-20T01:49:49.005Z,20.80
2019-06-20T01:52:19.192Z,20.90
2019-06-20T01:54:49.518Z,20.80
2019-06-20T01:57:21.799Z,20.90
2019-06-20T01:59:51.133Z,20.90
2019-06-20T02:02:21.261Z,20.90
2019-06-20T02:04:52.631Z,20.80
2019-06-20T02:07:22.856Z,20.80
2019-06-20T02:09:55.139Z,20.80
2019-06-20T02:12:24.873Z,20.80
2019-06-20T02:14:55.018Z,20.80
2019-06-20T02:17:26.702Z,20.70
2019-06-20T02:19:58.302Z,20.60
2019-06-20T02:22:28.529Z,20.60
2019-06-20T02:24:58.752Z,20.50
2019-06-20T02:27:29.120Z,20.50
2019-06-20T02:29:59.423Z,20.50
2019-06-20T02:32:33.920Z,20.50
2019-06-20T02:35:06.117Z,20.60
2019-06-20T02:37:36.480Z,20.60
2019-06-20T02:40:07.278Z,20.60
2019-06-20T02:42:37.490Z,20.60
2019-06-20T02:45:09.019Z,20.60
2019-06-20T02:47:39.211Z,20.60
2019-06-20T02:50:09.953Z,20.60
2019-06-20T02:52:42.497Z,20.60
2019-06-20T02:55:12.901Z,20.60
2019-06-20T02:57:44.260Z,20.60
2019-06-20T03:00:15.127Z,20.70
2019-06-20T03:02:45.465Z,20.70
2019-06-20T03:05:16.055Z,20.70
2019-06-20T03:07:46.336Z,20.70
2019-06-20T03:10:17.842Z,20.70
2019-06-20T03:12:48.241Z,20.70
2019-06-20T03:15:18.485Z,20.70
2019-06-20T03:17:48.749Z,20.70
2019-06-20T03:20:19.082Z,20.70
2019-06-20T03:22:50.311Z,20.70
2019-06-20T03:25:22.304Z,20.70
2019-06-20T03:27:54.715Z,20.80
2019-06-20T03:30:25.612Z,20.80
2019-06-20T03:32:57.870Z,20.80
2019-06-20T03:35:27.251Z,20.80
2019-06-20T03:37:57.421Z,20.80
2019-06-20T03:40:27.636Z,20.80
2019-06-20T03:42:58.905Z,20.80
2019-06-20T03:45:29.151Z,20.80
2019-06-20T03:47:59.350Z,20.80
2019-06-20T03:50:29.649Z,20.80
2019-06-20T03:53:03.550Z,20.80
2019-06-20T03:55:36.076Z,20.80
2019-06-20T03:58:06.390Z,20.80
2019-06-20T04:00:38.311Z,20.80
2019-06-20T04:03:08.678Z,20.80
2019-06-20T04:05:42.043Z,20.90
2019-06-20T04:08:12.409Z,20.90
2019-06-20T04:10:42.648Z,20.80
2019-06-20T04:13:12.883Z,20.90
2019-06-20T04:15:43.105Z,20.90
2019-06-20T04:18:15.654Z,20.90
2019-06-20T04:20:44.694Z,21.00
2019-06-20T04:23:14.744Z,21.00
2019-06-20T04:25:45.007Z,21.00
2019-06-20T04:28:15.425Z,21.00
2019-06-20T04:30:45.629Z,21.00
2019-06-20T04:33:16.214Z,21.00
2019-06-20T04:35:46.484Z,21.00
2019-06-20T04:38:16.744Z,21.10
2019-06-20T04:40:48.564Z,21.10
2019-06-20T04:43:18.785Z,21.20
2019-06-20T04:45:50.921Z,21.20
2019-06-20T04:48:23.113Z,21.20
2019-06-20T04:50:53.328Z,21.30
2019-06-20T04:53:23.636Z,21.30
2019-06-20T04:55:53.918Z,21.30
2019-06-20T04:58:28.249Z,21.30
2019-06-20T05:00:58.508Z,21.40
2019-06-20T05:03:28.741Z,21.30
2019-06-20T05:05:59.022Z,21.30
2019-06-20T05:08:29.351Z,21.30
2019-06-20T05:10:59.615Z,21.30
2019-06-20T05:13:29.918Z,21.30
2019-06-20T05:16:00.107Z,21.40
2019-06-20T05:18:30.336Z,21.50
2019-06-20T05:21:00.532Z,21.60
2019-06-20T05:23:30.836Z,21.70
2019-06-20T05:26:01.200Z,21.80
2019-06-20T05:28:31.508Z,21.80
2019-06-20T05:31:01.732Z,22.00
2019-06-20T05:33:32.053Z,22.00
2019-06-20T05:36:02.246Z,22.00
2019-06-20T05:38:32.489Z,22.00
2019-06-20T05:41:02.720Z,22.10
2019-06-20T05:43:33.589Z,22.20
2019-06-20T05:46:09.619Z,22.30
2019-06-20T05:48:35.593Z,22.50
2019-06-20T05:51:06.290Z,22.70
2019-06-20T05:53:36.613Z,22.80
2019-06-20T05:56:08.723Z,22.90
2019-06-20T05:58:39.025Z,23.10
2019-06-20T06:01:09.428Z,23.20
2019-06-20T06:03:39.701Z,23.30
2019-06-20T06:06:11.096Z,23.50
2019-06-20T06:08:42.391Z,23.50
2019-06-20T06:11:12.724Z,23.70
2019-06-20T06:13:43.015Z,23.80
2019-06-20T06:16:25.612Z,23.80
2019-06-20T06:18:45.219Z,23.90
2019-06-20T06:21:15.494Z,24.00
2019-06-20T06:23:46.784Z,24.00
2019-06-20T06:26:17.103Z,24.10
2019-06-20T06:28:47.296Z,24.10
2019-06-20T06:31:17.504Z,24.00
2019-06-20T06:33:48.749Z,24.00
2019-06-20T06:36:19.034Z,24.00
2019-06-20T06:38:50.240Z,24.00
2019-06-20T06:41:20.440Z,24.00
2019-06-20T06:43:51.707Z,24.00
2019-06-20T06:46:21.913Z,24.00
2019-06-20T06:48:53.373Z,23.90
2019-06-20T06:51:23.664Z,23.90
2019-06-20T06:53:53.888Z,23.90
2019-06-20T06:56:25.227Z,23.90
2019-06-20T06:58:55.552Z,23.90
2019-06-20T07:01:26.836Z,23.90
2019-06-20T07:03:57.059Z,23.90
2019-06-20T07:06:31.682Z,23.90
2019-06-20T07:09:01.897Z,24.00
2019-06-20T07:11:33.495Z,24.00
2019-06-20T07:14:03.802Z,24.10
2019-06-20T07:16:34.012Z,24.20
2019-06-20T07:19:04.228Z,24.20
2019-06-20T07:21:35.479Z,24.40
2019-06-20T07:24:05.664Z,24.50
2019-06-20T07:26:35.962Z,24.50
2019-06-20T07:29:06.186Z,24.70
2019-06-20T07:31:36.510Z,24.80
2019-06-20T07:34:06.691Z,25.00
2019-06-20T07:36:37.918Z,25.10
2019-06-20T07:39:09.064Z,25.30
2019-06-20T07:41:40.218Z,25.40
2019-06-20T07:44:10.506Z,25.50
2019-06-20T07:46:40.798Z,25.60
2019-06-20T07:49:10.982Z,25.70
2019-06-20T07:51:41.188Z,25.80
2019-06-20T07:54:11.814Z,25.80
2019-06-20T07:56:42.048Z,25.80
2019-06-20T07:59:12.343Z,25.90
2019-06-20T08:01:42.664Z,26.00
2019-06-20T08:04:12.850Z,25.90
2019-06-20T08:06:43.160Z,26.00
2019-06-20T08:09:14.430Z,25.90
2019-06-20T08:11:44.643Z,25.90
2019-06-20T08:14:14.904Z,25.90
2019-06-20T08:16:45.122Z,25.80
2019-06-20T08:19:15.418Z,25.70
2019-06-20T08:21:45.651Z,25.70
2019-06-20T08:24:15.885Z,25.70
2019-06-20T08:26:46.276Z,25.70
2019-06-20T08:29:21.179Z,25.70
2019-06-20T08:31:48.511Z,25.70
2019-06-20T08:34:18.791Z,25.70
2019-06-20T08:36:48.974Z,25.70
2019-06-20T08:39:19.441Z,25.70
2019-06-20T08:41:49.824Z,25.80
2019-06-20T08:44:20.400Z,25.80
2019-06-20T08:46:51.436Z,25.80
2019-06-20T08:49:21.802Z,25.90
2019-06-20T08:51:52.561Z,25.90
2019-06-20T08:54:23.490Z,26.00
2019-06-20T08:56:54.529Z,26.00
2019-06-20T08:59:25.092Z,26.00
2019-06-20T09:01:58.030Z,26.10
2019-06-20T09:04:27.113Z,26.20
2019-06-20T09:06:58.803Z,26.20
2019-06-20T09:09:28.773Z,26.30
2019-06-20T09:12:00.290Z,26.40
2019-06-20T09:14:32.041Z,26.50
2019-06-20T09:17:03.445Z,26.60
2019-06-20T09:19:33.689Z,26.70
2019-06-20T09:22:05.007Z,26.70
2019-06-20T09:24:35.412Z,26.80
2019-06-20T09:27:05.719Z,26.90
2019-06-20T09:29:41.613Z,26.90
2019-06-20T09:32:08.872Z,27.00
2019-06-20T09:34:40.076Z,27.10
2019-06-20T09:37:10.312Z,27.20
2019-06-20T09:39:40.552Z,27.30
2019-06-20T09:42:11.523Z,27.50
2019-06-20T09:44:42.244Z,27.60
2019-06-20T09:47:13.430Z,27.70
2019-06-20T09:49:44.020Z,27.80
2019-06-20T09:52:14.241Z,27.90
2019-06-20T09:54:44.568Z,28.00
2019-06-20T09:57:14.789Z,28.10
2019-06-20T09:59:59.216Z,28.20
2019-06-20T10:02:16.837Z,28.30
2019-06-20T10:04:47.884Z,28.30
2019-06-20T10:07:18.847Z,28.50
2019-06-20T10:09:49.922Z,28.50
2019-06-20T10:12:20.292Z,28.60
2019-06-20T10:14:51.585Z,28.70
2019-06-20T10:17:21.924Z,28.80
2019-06-20T10:19:54.091Z,28.90
2019-06-20T10:22:24.407Z,29.10
2019-06-20T10:24:55.997Z,29.40
2019-06-20T10:27:26.191Z,29.50
2019-06-20T10:30:04.946Z,29.50
2019-06-20T10:32:28.240Z,29.60
2019-06-20T10:34:58.450Z,29.60
2019-06-20T10:37:29.673Z,29.60
2019-06-20T10:39:59.948Z,29.50
2019-06-20T10:42:30.255Z,29.40
2019-06-20T10:45:00.586Z,29.40
2019-06-20T10:47:35.065Z,29.20
2019-06-20T10:50:02.672Z,29.20
2019-06-20T10:52:33.031Z,29.10
2019-06-20T10:55:04.733Z,29.00
2019-06-20T10:57:34.983Z,29.00
2019-06-20T11:00:11.026Z,28.90
2019-06-20T11:02:42.284Z,28.90
2019-06-20T11:05:13.867Z,28.90
2019-06-20T11:10:14.838Z,29.10
2019-06-20T11:12:50.216Z,29.20
2019-06-20T11:15:16.587Z,29.50
2019-06-20T11:17:46.841Z,29.70
2019-06-20T11:27:49.822Z,30.50
2019-06-20T11:32:53.402Z,30.50
2019-06-20T11:35:23.656Z,30.50
2019-06-20T11:37:55.043Z,30.50
2019-06-20T11:40:25.619Z,30.50
2019-06-20T11:42:58.055Z,30.60
2019-06-20T11:45:28.628Z,30.70
2019-06-20T11:48:00.775Z,30.70
2019-06-20T11:50:31.025Z,30.70
2019-06-20T11:53:01.336Z,30.70
2019-06-20T11:55:31.608Z,30.70
2019-06-20T11:58:01.830Z,30.70
2019-06-20T12:00:32.120Z,30.80
2019-06-20T12:03:03.380Z,30.90
2019-06-20T12:05:33.602Z,31.00
2019-06-20T12:08:03.980Z,31.00
2019-06-20T12:10:34.276Z,31.10
2019-06-20T12:13:05.532Z,31.10
2019-06-20T12:15:35.701Z,31.00
2019-06-20T12:18:05.921Z,31.00
2019-06-20T12:20:36.115Z,30.90
2019-06-20T12:23:06.417Z,30.90
2019-06-20T12:25:39.094Z,30.70
2019-06-20T12:28:07.919Z,30.60
2019-06-20T12:30:38.446Z,30.50
2019-06-20T12:33:10.067Z,30.60
2019-06-20T12:35:41.335Z,30.80
2019-06-20T12:38:11.276Z,31.10
2019-06-20T12:40:42.415Z,31.10
2019-06-20T12:43:12.273Z,31.20
2019-06-20T12:45:42.878Z,31.10
2019-06-20T12:48:13.083Z,31.20
2019-06-20T12:50:43.373Z,31.20
2019-06-20T12:53:13.923Z,31.20
2019-06-20T12:55:45.623Z,31.10
2019-06-20T12:58:17.017Z,31.00
2019-06-20T13:00:47.336Z,30.90
2019-06-20T13:03:17.679Z,30.80
2019-06-20T13:05:49.148Z,30.60
2019-06-20T13:08:20.617Z,30.50
2019-06-20T13:10:50.836Z,30.40
2019-06-20T13:13:21.096Z,30.20
2019-06-20T13:15:51.324Z,30.10
2019-06-20T13:18:22.769Z,30.00
2019-06-20T13:20:53.006Z,29.90
2019-06-20T13:23:23.263Z,29.90
2019-06-20T13:25:55.282Z,30.00
2019-06-20T13:28:25.268Z,30.10
2019-06-20T13:30:55.332Z,30.40
2019-06-20T13:33:25.622Z,30.60
2019-06-20T13:35:57.126Z,30.90
2019-06-20T13:38:27.426Z,31.10
2019-06-20T13:40:57.744Z,31.40
2019-06-20T13:43:30.090Z,31.70
2019-06-20T13:46:00.310Z,31.90
2019-06-20T13:48:34.324Z,32.20
2019-06-20T13:51:04.634Z,32.50
2019-06-20T13:53:35.271Z,32.50
2019-06-20T13:56:05.565Z,32.70
2019-06-20T13:58:36.067Z,32.80
2019-06-20T14:01:06.359Z,32.80
2019-06-20T14:03:36.825Z,32.80
2019-06-20T14:06:07.225Z,32.80
2019-06-20T14:08:37.821Z,32.60
2019-06-20T14:11:08.141Z,32.50
2019-06-20T14:13:38.562Z,32.40
2019-06-20T14:16:08.842Z,32.40
2019-06-20T14:18:39.071Z,32.20
2019-06-20T14:21:10.341Z,32.20
2019-06-20T14:23:41.019Z,32.20
2019-06-20T14:26:12.623Z,32.30
2019-06-20T14:28:44.274Z,32.40
2019-06-20T14:31:13.954Z,32.50
2019-06-20T14:33:46.126Z,32.40
2019-06-20T14:36:17.432Z,32.50
2019-06-20T14:38:47.766Z,32.50
2019-06-20T14:41:18.078Z,32.70
2019-06-20T14:43:49.463Z,32.70
2019-06-20T14:46:20.363Z,32.80
2019-06-20T14:48:51.097Z,32.80
2019-06-20T14:51:21.345Z,32.80
2019-06-20T14:53:52.705Z,32.70
2019-06-20T14:56:23.406Z,32.70
2019-06-20T14:58:53.842Z,32.60
2019-06-20T15:01:25.589Z,32.50
2019-06-20T15:03:56.011Z,32.20
2019-06-20T15:06:26.243Z,31.70
2019-06-20T15:09:03.253Z,31.10
2019-06-20T15:11:28.326Z,30.50
2019-06-20T15:13:58.606Z,29.90
2019-06-20T15:16:28.793Z,29.40
2019-06-20T15:18:59.124Z,28.90
2019-06-20T15:21:29.450Z,28.60
2019-06-20T15:24:00.618Z,28.40
2019-06-20T15:26:30.886Z,28.20
2019-06-20T15:29:01.176Z,28.10
2019-06-20T15:31:31.456Z,28.10
2019-06-20T15:34:01.738Z,28.00
2019-06-20T15:36:31.966Z,27.90
2019-06-20T15:39:02.469Z,27.80
2019-06-20T15:41:33.735Z,27.60
2019-06-20T15:44:03.871Z,27.40
2019-06-20T15:46:34.199Z,27.20
2019-06-20T15:49:15.666Z,27.10
2019-06-20T15:51:36.257Z,27.10
2019-06-20T15:54:06.632Z,27.00
2019-06-20T15:56:36.813Z,26.60
2019-06-20T15:59:07.960Z,26.30
2019-06-20T16:01:38.183Z,25.90
2019-06-20T16:04:08.407Z,25.60
2019-06-20T16:06:39.691Z,25.50
2019-06-20T16:09:09.939Z,25.30
2019-06-20T16:11:41.204Z,25.00
2019-06-20T16:14:11.424Z,24.80
2019-06-20T16:16:59.749Z,24.70
2019-06-20T16:19:30.101Z,24.60
2019-06-20T16:22:05.578Z,24.50
2019-06-20T16:24:36.133Z,24.50
2019-06-20T16:27:25.163Z,24.40
2019-06-20T16:29:55.419Z,24.40
2019-06-20T16:32:25.941Z,24.40
2019-06-20T16:34:57.499Z,24.50
2019-06-20T16:37:28.009Z,24.50
2019-06-20T16:40:14.804Z,24.60
2019-06-20T16:42:45.023Z,24.60
2019-06-20T16:45:17.937Z,24.80
2019-06-20T16:47:49.988Z,25.00
2019-06-20T16:50:34.542Z,25.10
2019-06-20T16:53:05.124Z,25.40
2019-06-20T16:55:59.503Z,25.60
2019-06-20T16:58:29.794Z,25.80
2019-06-20T17:00:59.987Z,26.00
2019-06-20T17:03:41.096Z,26.10
2019-06-20T17:06:02.148Z,26.20
2019-06-20T17:08:37.296Z,26.30
2019-06-20T17:11:07.502Z,26.40
2019-06-20T17:13:38.024Z,26.40
2019-06-20T17:16:08.338Z,26.40
2019-06-20T17:18:43.017Z,26.20
2019-06-20T17:21:13.450Z,26.00
2019-06-20T17:23:44.618Z,25.80
2019-06-20T17:26:14.885Z,25.70
2019-06-20T17:28:51.864Z,25.60
2019-06-20T17:31:22.180Z,25.50
2019-06-20T17:33:59.728Z,25.30
2019-06-20T17:36:29.928Z,25.30
2019-06-20T17:39:01.144Z,25.20
2019-06-20T17:41:55.434Z,25.20
2019-06-20T17:44:27.362Z,25.10
2019-06-20T17:46:56.046Z,25.00
2019-06-20T17:49:32.056Z,25.00
2019-06-20T17:52:02.323Z,25.00
2019-06-20T17:54:37.974Z,24.90
2019-06-20T17:57:08.226Z,24.90
2019-06-20T17:59:43.656Z,24.80
2019-06-20T18:02:13.847Z,24.70
2019-06-20T18:07:14.822Z,24.50
2019-06-20T18:09:45.109Z,24.40
2019-06-20T18:12:15.479Z,24.40
2019-06-20T18:14:49.966Z,24.30
2019-06-20T18:17:20.239Z,24.40
2019-06-20T18:20:02.771Z,24.30
2019-06-20T18:22:33.152Z,24.30
2019-06-20T18:25:04.401Z,24.20
2019-06-20T18:27:42.688Z,24.20
2019-06-20T18:30:15.257Z,24.20
2019-06-20T18:32:52.491Z,24.20
2019-06-20T18:35:22.689Z,24.10
2019-06-20T18:37:53.090Z,24.10
2019-06-20T18:40:23.834Z,24.10
2019-06-20T18:42:55.242Z,24.00
2019-06-20T18:45:25.424Z,24.10
2019-06-20T18:47:55.696Z,24.00
2019-06-20T18:50:25.960Z,24.00
2019-06-20T18:52:56.257Z,24.00
2019-06-20T18:56:07.816Z,24.00
2019-06-20T18:58:38.243Z,24.00
2019-06-20T19:01:12.398Z,23.90
2019-06-20T19:03:42.694Z,23.80
2019-06-20T19:06:13.024Z,23.70
2019-06-20T19:08:45.358Z,23.70
2019-06-20T19:11:16.012Z,23.70
2019-06-20T19:13:46.240Z,23.60
2019-06-20T19:16:16.685Z,23.40
2019-06-20T19:18:47.282Z,23.40
2019-06-20T19:21:19.676Z,23.40
2019-06-20T19:23:50.110Z,23.30
2019-06-20T19:26:28.019Z,23.30
2019-06-20T19:28:59.047Z,23.30
2019-06-20T19:31:31.347Z,23.30
2019-06-20T19:34:01.652Z,23.30
2019-06-20T19:36:42.369Z,23.20
2019-06-20T19:39:12.965Z,23.20
2019-06-20T19:41:43.206Z,23.20
2019-06-20T19:44:13.493Z,23.20
2019-06-20T19:46:44.007Z,23.20
2019-06-20T19:49:17.849Z,23.20
2019-06-20T19:51:48.208Z,23.10
2019-06-20T19:54:18.387Z,23.10
2019-06-20T19:56:48.663Z,23.10
2019-06-20T19:59:18.821Z,23.10
2019-06-20T20:01:49.151Z,23.00
2019-06-20T20:04:19.375Z,23.10
2019-06-20T20:06:49.610Z,22.90
2019-06-20T20:09:26.203Z,22.90
2019-06-20T20:11:56.424Z,22.80
2019-06-20T20:14:30.033Z,22.70
2019-06-20T20:17:00.232Z,22.70
2019-06-20T20:19:34.485Z,22.60
2019-06-20T20:22:06.639Z,22.60
2019-06-20T20:24:39.152Z,22.50
2019-06-20T20:27:09.604Z,22.50
2019-06-20T20:29:44.048Z,22.50
2019-06-20T20:32:14.464Z,22.50
2019-06-20T20:34:58.694Z,22.40
2019-06-20T20:37:29.141Z,22.30
2019-06-20T20:40:11.059Z,22.30
2019-06-20T20:42:41.327Z,22.30
2019-06-20T20:45:11.959Z,22.30
2019-06-20T20:47:42.659Z,22.20
2019-06-20T20:50:18.175Z,22.20
2019-06-20T20:52:50.791Z,22.10
2019-06-20T20:55:21.019Z,22.10
2019-06-20T20:57:56.137Z,22.10
2019-06-20T21:01:02.349Z,22.00
2019-06-20T21:03:32.788Z,22.00
2019-06-20T21:06:03.121Z,22.00
2019-06-20T21:08:41.351Z,21.90
2019-06-20T21:11:11.653Z,21.90
2019-06-20T21:13:42.884Z,21.90
2019-06-20T21:16:13.156Z,21.90
2019-06-20T21:18:44.400Z,21.80
2019-06-20T21:21:14.661Z,21.80
2019-06-20T21:23:48.286Z,21.70
2019-06-20T21:26:18.975Z,21.70
2019-06-20T21:28:53.227Z,21.70
2019-06-20T21:31:23.895Z,21.70
2019-06-20T21:33:54.706Z,21.70
2019-06-20T21:36:25.131Z,21.60
2019-06-20T21:38:56.597Z,21.60
2019-06-20T21:41:27.905Z,21.50
2019-06-20T21:43:58.289Z,21.50
2019-06-20T21:46:28.692Z,21.40
2019-06-20T21:48:59.392Z,21.40
2019-06-20T21:51:30.621Z,21.40
2019-06-20T21:54:01.271Z,21.40
2019-06-20T21:56:31.660Z,21.30
2019-06-20T21:59:01.938Z,21.30
2019-06-20T22:01:35.462Z,21.30
2019-06-20T22:04:06.011Z,21.20
2019-06-20T22:06:36.233Z,21.20
2019-06-20T22:09:09.162Z,21.10
2019-06-20T22:11:41.002Z,21.10
2019-06-20T22:14:11.304Z,21.10
2019-06-20T22:16:41.694Z,21.10
2019-06-20T22:19:11.874Z,21.10
2019-06-20T22:21:42.317Z,21.10
2019-06-20T22:24:13.589Z,21.10
2019-06-20T22:26:43.807Z,21.10
2019-06-20T22:29:15.160Z,21.00
2019-06-20T22:31:45.378Z,21.00
2019-06-20T22:34:15.584Z,21.00
2019-06-20T22:36:45.878Z,21.00
2019-06-20T22:39:16.070Z,21.00
2019-06-20T22:41:47.337Z,21.00
2019-06-20T22:44:17.518Z,21.00
2019-06-20T22:46:48.799Z,20.90
2019-06-20T22:49:18.985Z,20.80
2019-06-20T22:51:49.227Z,20.70
2019-06-20T22:54:19.491Z,20.70
2019-06-20T22:56:49.780Z,20.60
2019-06-20T22:59:22.336Z,20.50
2019-06-20T23:01:52.581Z,20.50
2019-06-20T23:04:22.810Z,20.50
2019-06-20T23:07:00.617Z,20.50
2019-06-20T23:09:31.835Z,20.40
2019-06-20T23:12:22.317Z,20.40
2019-06-20T23:14:55.820Z,20.40
2019-06-20T23:17:26.066Z,20.40
2019-06-20T23:19:56.218Z,20.40
2019-06-20T23:22:27.604Z,20.50
2019-06-20T23:24:57.836Z,20.40
2019-06-20T23:27:28.070Z,20.40
2019-06-20T23:29:58.297Z,20.40
2019-06-20T23:32:28.577Z,20.30
2019-06-20T23:34:58.756Z,20.20
2019-06-20T23:37:28.985Z,20.10
2019-06-20T23:39:59.261Z,20.10
2019-06-20T23:42:33.861Z,20.10
2019-06-20T23:45:05.099Z,20.10
2019-06-20T23:47:35.333Z,20.00
2019-06-20T23:50:09.394Z,20.10
2019-06-20T23:52:41.260Z,20.00
2019-06-20T23:55:11.737Z,20.00
2019-06-20T23:57:42.009Z,20.00
